<?xml version="1.0" encoding="UTF-8" standalone="no" ?>
<gpx xmlns="http://www.topografix.com/GPX/1/1" xmlns:xsi="http://www.w3.org/2001/XMLSchema-instance" xsi:schemaLocation="http://www.topografix.com/GPX/1/1 http://www.topografix.com/GPX/1/1/gpx.xsd" version="1.1" creator="VisuGPX - https://www.visugpx.com">
  <metadata>
    <name>Aosta jour 1</name>
    <desc><![CDATA[Tour prevu à Aoste, ca va piquer les gambettes]]></desc>
  </metadata>
  <trk>
    <name><![CDATA[20171027222443-xvM4r]]></name>
    <trkseg>
      <trkpt lat="45.7231" lon="7.16697">
        <ele>1567</ele>
        <time>2017-06-10T18:08:43Z</time>
      </trkpt>
      <trkpt lat="45.72312" lon="7.16699">
        <ele>1568</ele>
        <time>2017-06-10T18:10:13Z</time>
      </trkpt>
      <trkpt lat="45.72309" lon="7.16697">
        <ele>1567</ele>
        <time>2017-06-10T18:10:45Z</time>
      </trkpt>
      <trkpt lat="45.72288" lon="7.16703">
        <ele>1562</ele>
        <time>2017-06-10T18:10:51Z</time>
      </trkpt>
      <trkpt lat="45.7228" lon="7.16705">
        <ele>1561</ele>
        <time>2017-06-10T18:10:52Z</time>
      </trkpt>
      <trkpt lat="45.72273" lon="7.16706">
        <ele>1559</ele>
        <time>2017-06-10T18:10:53Z</time>
      </trkpt>
      <trkpt lat="45.72266" lon="7.16708">
        <ele>1558</ele>
        <time>2017-06-10T18:10:54Z</time>
      </trkpt>
      <trkpt lat="45.7226" lon="7.16711">
        <ele>1557</ele>
        <time>2017-06-10T18:10:55Z</time>
      </trkpt>
      <trkpt lat="45.72253" lon="7.16713">
        <ele>1557</ele>
        <time>2017-06-10T18:10:56Z</time>
      </trkpt>
      <trkpt lat="45.72246" lon="7.16715">
        <ele>1533</ele>
        <time>2017-06-10T18:10:57Z</time>
      </trkpt>
      <trkpt lat="45.72239" lon="7.16717">
        <ele>1532</ele>
        <time>2017-06-10T18:10:58Z</time>
      </trkpt>
      <trkpt lat="45.72232" lon="7.1672">
        <ele>1532</ele>
        <time>2017-06-10T18:10:59Z</time>
      </trkpt>
      <trkpt lat="45.72226" lon="7.16725">
        <ele>1531</ele>
        <time>2017-06-10T18:11:00Z</time>
      </trkpt>
      <trkpt lat="45.72219" lon="7.1673">
        <ele>1530</ele>
        <time>2017-06-10T18:11:01Z</time>
      </trkpt>
      <trkpt lat="45.72212" lon="7.16736">
        <ele>1529</ele>
        <time>2017-06-10T18:11:02Z</time>
      </trkpt>
      <trkpt lat="45.72204" lon="7.16744">
        <ele>1527</ele>
        <time>2017-06-10T18:11:03Z</time>
      </trkpt>
      <trkpt lat="45.72197" lon="7.1675">
        <ele>1529</ele>
        <time>2017-06-10T18:11:04Z</time>
      </trkpt>
      <trkpt lat="45.72192" lon="7.16756">
        <ele>1527</ele>
        <time>2017-06-10T18:11:05Z</time>
      </trkpt>
      <trkpt lat="45.72188" lon="7.16761">
        <ele>1526</ele>
        <time>2017-06-10T18:11:06Z</time>
      </trkpt>
      <trkpt lat="45.72186" lon="7.16764">
        <ele>1526</ele>
        <time>2017-06-10T18:11:07Z</time>
      </trkpt>
      <trkpt lat="45.72185" lon="7.16764">
        <ele>1526</ele>
        <time>2017-06-10T18:11:08Z</time>
      </trkpt>
      <trkpt lat="45.72185" lon="7.1676">
        <ele>1525</ele>
        <time>2017-06-10T18:11:09Z</time>
      </trkpt>
      <trkpt lat="45.72185" lon="7.16756">
        <ele>1525</ele>
        <time>2017-06-10T18:11:10Z</time>
      </trkpt>
      <trkpt lat="45.72184" lon="7.16747">
        <ele>1521</ele>
        <time>2017-06-10T18:11:12Z</time>
      </trkpt>
      <trkpt lat="45.72183" lon="7.16746">
        <ele>1521</ele>
        <time>2017-06-10T18:11:13Z</time>
      </trkpt>
      <trkpt lat="45.72181" lon="7.16748">
        <ele>1520</ele>
        <time>2017-06-10T18:11:14Z</time>
      </trkpt>
      <trkpt lat="45.72176" lon="7.16756">
        <ele>1521</ele>
        <time>2017-06-10T18:11:16Z</time>
      </trkpt>
      <trkpt lat="45.72171" lon="7.16761">
        <ele>1521</ele>
        <time>2017-06-10T18:11:18Z</time>
      </trkpt>
      <trkpt lat="45.7217" lon="7.1676">
        <ele>1521</ele>
        <time>2017-06-10T18:11:19Z</time>
      </trkpt>
      <trkpt lat="45.72169" lon="7.16758">
        <ele>1520</ele>
        <time>2017-06-10T18:11:20Z</time>
      </trkpt>
      <trkpt lat="45.72167" lon="7.16753">
        <ele>1517</ele>
        <time>2017-06-10T18:11:22Z</time>
      </trkpt>
      <trkpt lat="45.72163" lon="7.16753">
        <ele>1510</ele>
        <time>2017-06-10T18:11:24Z</time>
      </trkpt>
      <trkpt lat="45.72159" lon="7.1675">
        <ele>1507</ele>
        <time>2017-06-10T18:11:26Z</time>
      </trkpt>
      <trkpt lat="45.72158" lon="7.16742">
        <ele>1504</ele>
        <time>2017-06-10T18:11:28Z</time>
      </trkpt>
      <trkpt lat="45.72157" lon="7.16736">
        <ele>1501</ele>
        <time>2017-06-10T18:11:30Z</time>
      </trkpt>
      <trkpt lat="45.72154" lon="7.16735">
        <ele>1499</ele>
        <time>2017-06-10T18:11:31Z</time>
      </trkpt>
      <trkpt lat="45.7215" lon="7.16737">
        <ele>1498</ele>
        <time>2017-06-10T18:11:32Z</time>
      </trkpt>
      <trkpt lat="45.72145" lon="7.1674">
        <ele>1497</ele>
        <time>2017-06-10T18:11:33Z</time>
      </trkpt>
      <trkpt lat="45.72141" lon="7.16746">
        <ele>1495</ele>
        <time>2017-06-10T18:11:34Z</time>
      </trkpt>
      <trkpt lat="45.72136" lon="7.16753">
        <ele>1493</ele>
        <time>2017-06-10T18:11:35Z</time>
      </trkpt>
      <trkpt lat="45.72131" lon="7.16759">
        <ele>1491</ele>
        <time>2017-06-10T18:11:36Z</time>
      </trkpt>
      <trkpt lat="45.72127" lon="7.16765">
        <ele>1489</ele>
        <time>2017-06-10T18:11:37Z</time>
      </trkpt>
      <trkpt lat="45.72124" lon="7.1677">
        <ele>1487</ele>
        <time>2017-06-10T18:11:38Z</time>
      </trkpt>
      <trkpt lat="45.72123" lon="7.16775">
        <ele>1487</ele>
        <time>2017-06-10T18:11:39Z</time>
      </trkpt>
      <trkpt lat="45.72122" lon="7.1678">
        <ele>1486</ele>
        <time>2017-06-10T18:11:40Z</time>
      </trkpt>
      <trkpt lat="45.72121" lon="7.16787">
        <ele>1486</ele>
        <time>2017-06-10T18:11:42Z</time>
      </trkpt>
      <trkpt lat="45.72116" lon="7.16786">
        <ele>1484</ele>
        <time>2017-06-10T18:11:44Z</time>
      </trkpt>
      <trkpt lat="45.72113" lon="7.16783">
        <ele>1483</ele>
        <time>2017-06-10T18:11:45Z</time>
      </trkpt>
      <trkpt lat="45.7211" lon="7.16778">
        <ele>1482</ele>
        <time>2017-06-10T18:11:46Z</time>
      </trkpt>
      <trkpt lat="45.72107" lon="7.16773">
        <ele>1481</ele>
        <time>2017-06-10T18:11:47Z</time>
      </trkpt>
      <trkpt lat="45.72105" lon="7.16766">
        <ele>1480</ele>
        <time>2017-06-10T18:11:48Z</time>
      </trkpt>
      <trkpt lat="45.72103" lon="7.16758">
        <ele>1479</ele>
        <time>2017-06-10T18:11:49Z</time>
      </trkpt>
      <trkpt lat="45.72101" lon="7.16751">
        <ele>1477</ele>
        <time>2017-06-10T18:11:50Z</time>
      </trkpt>
      <trkpt lat="45.72095" lon="7.16735">
        <ele>1477</ele>
        <time>2017-06-10T18:11:52Z</time>
      </trkpt>
      <trkpt lat="45.72092" lon="7.16726">
        <ele>1478</ele>
        <time>2017-06-10T18:11:53Z</time>
      </trkpt>
      <trkpt lat="45.72088" lon="7.16718">
        <ele>1478</ele>
        <time>2017-06-10T18:11:54Z</time>
      </trkpt>
      <trkpt lat="45.72084" lon="7.1671">
        <ele>1478</ele>
        <time>2017-06-10T18:11:55Z</time>
      </trkpt>
      <trkpt lat="45.72082" lon="7.16701">
        <ele>1447</ele>
        <time>2017-06-10T18:11:56Z</time>
      </trkpt>
      <trkpt lat="45.7208" lon="7.16692">
        <ele>1448</ele>
        <time>2017-06-10T18:11:57Z</time>
      </trkpt>
      <trkpt lat="45.72077" lon="7.16678">
        <ele>1452</ele>
        <time>2017-06-10T18:11:59Z</time>
      </trkpt>
      <trkpt lat="45.72078" lon="7.1667">
        <ele>1456</ele>
        <time>2017-06-10T18:12:00Z</time>
      </trkpt>
      <trkpt lat="45.7208" lon="7.16661">
        <ele>1456</ele>
        <time>2017-06-10T18:12:01Z</time>
      </trkpt>
      <trkpt lat="45.72081" lon="7.16652">
        <ele>1451</ele>
        <time>2017-06-10T18:12:02Z</time>
      </trkpt>
      <trkpt lat="45.72082" lon="7.16643">
        <ele>1448</ele>
        <time>2017-06-10T18:12:03Z</time>
      </trkpt>
      <trkpt lat="45.72079" lon="7.16634">
        <ele>1446</ele>
        <time>2017-06-10T18:12:04Z</time>
      </trkpt>
      <trkpt lat="45.72076" lon="7.16626">
        <ele>1444</ele>
        <time>2017-06-10T18:12:05Z</time>
      </trkpt>
      <trkpt lat="45.72071" lon="7.1662">
        <ele>1444</ele>
        <time>2017-06-10T18:12:06Z</time>
      </trkpt>
      <trkpt lat="45.72066" lon="7.16613">
        <ele>1443</ele>
        <time>2017-06-10T18:12:07Z</time>
      </trkpt>
      <trkpt lat="45.72062" lon="7.16606">
        <ele>1443</ele>
        <time>2017-06-10T18:12:08Z</time>
      </trkpt>
      <trkpt lat="45.72058" lon="7.166">
        <ele>1442</ele>
        <time>2017-06-10T18:12:09Z</time>
      </trkpt>
      <trkpt lat="45.72055" lon="7.16597">
        <ele>1441</ele>
        <time>2017-06-10T18:12:10Z</time>
      </trkpt>
      <trkpt lat="45.72053" lon="7.16596">
        <ele>1440</ele>
        <time>2017-06-10T18:12:11Z</time>
      </trkpt>
      <trkpt lat="45.72052" lon="7.16599">
        <ele>1440</ele>
        <time>2017-06-10T18:12:12Z</time>
      </trkpt>
      <trkpt lat="45.72053" lon="7.16607">
        <ele>1440</ele>
        <time>2017-06-10T18:12:14Z</time>
      </trkpt>
      <trkpt lat="45.72052" lon="7.16609">
        <ele>1439</ele>
        <time>2017-06-10T18:12:15Z</time>
      </trkpt>
      <trkpt lat="45.7205" lon="7.16609">
        <ele>1439</ele>
        <time>2017-06-10T18:12:16Z</time>
      </trkpt>
      <trkpt lat="45.72047" lon="7.16609">
        <ele>1438</ele>
        <time>2017-06-10T18:12:17Z</time>
      </trkpt>
      <trkpt lat="45.72046" lon="7.1661">
        <ele>1437</ele>
        <time>2017-06-10T18:12:18Z</time>
      </trkpt>
      <trkpt lat="45.72045" lon="7.16617">
        <ele>1437</ele>
        <time>2017-06-10T18:12:20Z</time>
      </trkpt>
      <trkpt lat="45.72044" lon="7.16627">
        <ele>1437</ele>
        <time>2017-06-10T18:12:22Z</time>
      </trkpt>
      <trkpt lat="45.72043" lon="7.16632">
        <ele>1437</ele>
        <time>2017-06-10T18:12:23Z</time>
      </trkpt>
      <trkpt lat="45.72042" lon="7.16639">
        <ele>1436</ele>
        <time>2017-06-10T18:12:24Z</time>
      </trkpt>
      <trkpt lat="45.72039" lon="7.16645">
        <ele>1435</ele>
        <time>2017-06-10T18:12:25Z</time>
      </trkpt>
      <trkpt lat="45.72036" lon="7.1665">
        <ele>1434</ele>
        <time>2017-06-10T18:12:26Z</time>
      </trkpt>
      <trkpt lat="45.72034" lon="7.16654">
        <ele>1433</ele>
        <time>2017-06-10T18:12:27Z</time>
      </trkpt>
      <trkpt lat="45.72031" lon="7.16655">
        <ele>1432</ele>
        <time>2017-06-10T18:12:28Z</time>
      </trkpt>
      <trkpt lat="45.72029" lon="7.16653">
        <ele>1431</ele>
        <time>2017-06-10T18:12:29Z</time>
      </trkpt>
      <trkpt lat="45.72028" lon="7.16651">
        <ele>1430</ele>
        <time>2017-06-10T18:12:30Z</time>
      </trkpt>
      <trkpt lat="45.72026" lon="7.16651">
        <ele>1430</ele>
        <time>2017-06-10T18:12:31Z</time>
      </trkpt>
      <trkpt lat="45.72025" lon="7.1665">
        <ele>1429</ele>
        <time>2017-06-10T18:12:32Z</time>
      </trkpt>
      <trkpt lat="45.72025" lon="7.1665">
        <ele>1429</ele>
        <time>2017-06-10T18:12:33Z</time>
      </trkpt>
      <trkpt lat="45.72024" lon="7.1665">
        <ele>1429</ele>
        <time>2017-06-10T18:12:35Z</time>
      </trkpt>
      <trkpt lat="45.7202" lon="7.16647">
        <ele>1428</ele>
        <time>2017-06-10T18:12:55Z</time>
      </trkpt>
      <trkpt lat="45.72019" lon="7.16646">
        <ele>1428</ele>
        <time>2017-06-10T18:12:58Z</time>
      </trkpt>
      <trkpt lat="45.72018" lon="7.16639">
        <ele>1429</ele>
        <time>2017-06-10T18:13:43Z</time>
      </trkpt>
      <trkpt lat="45.72015" lon="7.16634">
        <ele>1428</ele>
        <time>2017-06-10T18:13:44Z</time>
      </trkpt>
      <trkpt lat="45.72013" lon="7.16629">
        <ele>1428</ele>
        <time>2017-06-10T18:13:45Z</time>
      </trkpt>
      <trkpt lat="45.7201" lon="7.16625">
        <ele>1428</ele>
        <time>2017-06-10T18:13:46Z</time>
      </trkpt>
      <trkpt lat="45.72006" lon="7.16622">
        <ele>1427</ele>
        <time>2017-06-10T18:13:47Z</time>
      </trkpt>
      <trkpt lat="45.71998" lon="7.16605">
        <ele>1397</ele>
        <time>2017-06-10T18:13:50Z</time>
      </trkpt>
      <trkpt lat="45.71996" lon="7.16597">
        <ele>1400</ele>
        <time>2017-06-10T18:13:51Z</time>
      </trkpt>
      <trkpt lat="45.71993" lon="7.16587">
        <ele>1404</ele>
        <time>2017-06-10T18:13:52Z</time>
      </trkpt>
      <trkpt lat="45.7199" lon="7.16577">
        <ele>1399</ele>
        <time>2017-06-10T18:13:53Z</time>
      </trkpt>
      <trkpt lat="45.71987" lon="7.16565">
        <ele>1391</ele>
        <time>2017-06-10T18:13:54Z</time>
      </trkpt>
      <trkpt lat="45.71984" lon="7.16556">
        <ele>1387</ele>
        <time>2017-06-10T18:13:55Z</time>
      </trkpt>
      <trkpt lat="45.71982" lon="7.16547">
        <ele>1385</ele>
        <time>2017-06-10T18:13:56Z</time>
      </trkpt>
      <trkpt lat="45.7198" lon="7.1654">
        <ele>1383</ele>
        <time>2017-06-10T18:13:57Z</time>
      </trkpt>
      <trkpt lat="45.7198" lon="7.16534">
        <ele>1383</ele>
        <time>2017-06-10T18:13:58Z</time>
      </trkpt>
      <trkpt lat="45.71979" lon="7.16529">
        <ele>1382</ele>
        <time>2017-06-10T18:13:59Z</time>
      </trkpt>
      <trkpt lat="45.71979" lon="7.16524">
        <ele>1383</ele>
        <time>2017-06-10T18:14:00Z</time>
      </trkpt>
      <trkpt lat="45.71979" lon="7.16522">
        <ele>1383</ele>
        <time>2017-06-10T18:14:01Z</time>
      </trkpt>
      <trkpt lat="45.71978" lon="7.1652">
        <ele>1382</ele>
        <time>2017-06-10T18:14:03Z</time>
      </trkpt>
      <trkpt lat="45.71977" lon="7.16521">
        <ele>1382</ele>
        <time>2017-06-10T18:14:07Z</time>
      </trkpt>
      <trkpt lat="45.71977" lon="7.16526">
        <ele>1382</ele>
        <time>2017-06-10T18:14:10Z</time>
      </trkpt>
      <trkpt lat="45.71978" lon="7.1653">
        <ele>1382</ele>
        <time>2017-06-10T18:14:13Z</time>
      </trkpt>
      <trkpt lat="45.71979" lon="7.16532">
        <ele>1383</ele>
        <time>2017-06-10T18:14:18Z</time>
      </trkpt>
      <trkpt lat="45.71975" lon="7.16508">
        <ele>1382</ele>
        <time>2017-06-10T18:14:32Z</time>
      </trkpt>
      <trkpt lat="45.71976" lon="7.16503">
        <ele>1382</ele>
        <time>2017-06-10T18:14:36Z</time>
      </trkpt>
      <trkpt lat="45.71974" lon="7.1651">
        <ele>1381</ele>
        <time>2017-06-10T18:15:55Z</time>
      </trkpt>
      <trkpt lat="45.71972" lon="7.16514">
        <ele>1381</ele>
        <time>2017-06-10T18:15:57Z</time>
      </trkpt>
      <trkpt lat="45.71973" lon="7.16518">
        <ele>1381</ele>
        <time>2017-06-10T18:16:00Z</time>
      </trkpt>
      <trkpt lat="45.7198" lon="7.16526">
        <ele>1383</ele>
        <time>2017-06-10T18:16:25Z</time>
      </trkpt>
      <trkpt lat="45.71984" lon="7.16517">
        <ele>1385</ele>
        <time>2017-06-10T18:16:28Z</time>
      </trkpt>
      <trkpt lat="45.71973" lon="7.16514">
        <ele>1381</ele>
        <time>2017-06-10T18:17:08Z</time>
      </trkpt>
      <trkpt lat="45.71979" lon="7.16506">
        <ele>1384</ele>
        <time>2017-06-10T18:18:26Z</time>
      </trkpt>
      <trkpt lat="45.71978" lon="7.16509">
        <ele>1383</ele>
        <time>2017-06-10T18:18:28Z</time>
      </trkpt>
      <trkpt lat="45.71978" lon="7.16512">
        <ele>1383</ele>
        <time>2017-06-10T18:18:30Z</time>
      </trkpt>
      <trkpt lat="45.71978" lon="7.16515">
        <ele>1383</ele>
        <time>2017-06-10T18:18:32Z</time>
      </trkpt>
      <trkpt lat="45.71978" lon="7.16525">
        <ele>1382</ele>
        <time>2017-06-10T18:18:39Z</time>
      </trkpt>
      <trkpt lat="45.71981" lon="7.16531">
        <ele>1383</ele>
        <time>2017-06-10T18:18:47Z</time>
      </trkpt>
      <trkpt lat="45.71981" lon="7.16532">
        <ele>1383</ele>
        <time>2017-06-10T18:18:55Z</time>
      </trkpt>
      <trkpt lat="45.71981" lon="7.1652">
        <ele>1383</ele>
        <time>2017-06-10T18:18:59Z</time>
      </trkpt>
      <trkpt lat="45.71981" lon="7.16514">
        <ele>1384</ele>
        <time>2017-06-10T18:19:01Z</time>
      </trkpt>
      <trkpt lat="45.71978" lon="7.16517">
        <ele>1383</ele>
        <time>2017-06-10T18:19:02Z</time>
      </trkpt>
      <trkpt lat="45.71969" lon="7.16523">
        <ele>1379</ele>
        <time>2017-06-10T18:19:05Z</time>
      </trkpt>
      <trkpt lat="45.71968" lon="7.16518">
        <ele>1379</ele>
        <time>2017-06-10T18:19:06Z</time>
      </trkpt>
      <trkpt lat="45.71969" lon="7.16512">
        <ele>1379</ele>
        <time>2017-06-10T18:19:07Z</time>
      </trkpt>
      <trkpt lat="45.71972" lon="7.16506">
        <ele>1380</ele>
        <time>2017-06-10T18:19:10Z</time>
      </trkpt>
      <trkpt lat="45.71968" lon="7.16507">
        <ele>1379</ele>
        <time>2017-06-10T18:19:11Z</time>
      </trkpt>
      <trkpt lat="45.71959" lon="7.16514">
        <ele>1375</ele>
        <time>2017-06-10T18:19:13Z</time>
      </trkpt>
      <trkpt lat="45.71955" lon="7.16518">
        <ele>1373</ele>
        <time>2017-06-10T18:19:14Z</time>
      </trkpt>
      <trkpt lat="45.71951" lon="7.16521">
        <ele>1372</ele>
        <time>2017-06-10T18:19:15Z</time>
      </trkpt>
      <trkpt lat="45.71947" lon="7.16523">
        <ele>1371</ele>
        <time>2017-06-10T18:19:16Z</time>
      </trkpt>
      <trkpt lat="45.71945" lon="7.16523">
        <ele>1370</ele>
        <time>2017-06-10T18:19:17Z</time>
      </trkpt>
      <trkpt lat="45.71944" lon="7.16522">
        <ele>1370</ele>
        <time>2017-06-10T18:19:18Z</time>
      </trkpt>
      <trkpt lat="45.71944" lon="7.16521">
        <ele>1369</ele>
        <time>2017-06-10T18:19:19Z</time>
      </trkpt>
      <trkpt lat="45.71944" lon="7.1652">
        <ele>1369</ele>
        <time>2017-06-10T18:19:21Z</time>
      </trkpt>
      <trkpt lat="45.71942" lon="7.16513">
        <ele>1367</ele>
        <time>2017-06-10T18:19:40Z</time>
      </trkpt>
      <trkpt lat="45.71943" lon="7.16505">
        <ele>1366</ele>
        <time>2017-06-10T18:19:43Z</time>
      </trkpt>
      <trkpt lat="45.71937" lon="7.16501">
        <ele>1363</ele>
        <time>2017-06-10T18:19:46Z</time>
      </trkpt>
      <trkpt lat="45.71933" lon="7.16505">
        <ele>1360</ele>
        <time>2017-06-10T18:19:47Z</time>
      </trkpt>
      <trkpt lat="45.71929" lon="7.1651">
        <ele>1359</ele>
        <time>2017-06-10T18:19:48Z</time>
      </trkpt>
      <trkpt lat="45.71926" lon="7.16516">
        <ele>1360</ele>
        <time>2017-06-10T18:19:49Z</time>
      </trkpt>
      <trkpt lat="45.71922" lon="7.16521">
        <ele>1361</ele>
        <time>2017-06-10T18:19:50Z</time>
      </trkpt>
      <trkpt lat="45.71919" lon="7.16526">
        <ele>1363</ele>
        <time>2017-06-10T18:19:51Z</time>
      </trkpt>
      <trkpt lat="45.71917" lon="7.16532">
        <ele>1364</ele>
        <time>2017-06-10T18:19:52Z</time>
      </trkpt>
      <trkpt lat="45.71915" lon="7.1654">
        <ele>1328</ele>
        <time>2017-06-10T18:19:53Z</time>
      </trkpt>
      <trkpt lat="45.71913" lon="7.16549">
        <ele>1329</ele>
        <time>2017-06-10T18:19:54Z</time>
      </trkpt>
      <trkpt lat="45.71911" lon="7.16559">
        <ele>1331</ele>
        <time>2017-06-10T18:19:55Z</time>
      </trkpt>
      <trkpt lat="45.71909" lon="7.16567">
        <ele>1334</ele>
        <time>2017-06-10T18:19:56Z</time>
      </trkpt>
      <trkpt lat="45.71906" lon="7.16575">
        <ele>1337</ele>
        <time>2017-06-10T18:19:57Z</time>
      </trkpt>
      <trkpt lat="45.71902" lon="7.16582">
        <ele>1336</ele>
        <time>2017-06-10T18:19:58Z</time>
      </trkpt>
      <trkpt lat="45.71899" lon="7.16588">
        <ele>1334</ele>
        <time>2017-06-10T18:19:59Z</time>
      </trkpt>
      <trkpt lat="45.71897" lon="7.16595">
        <ele>1331</ele>
        <time>2017-06-10T18:20:00Z</time>
      </trkpt>
      <trkpt lat="45.71895" lon="7.16601">
        <ele>1329</ele>
        <time>2017-06-10T18:20:01Z</time>
      </trkpt>
      <trkpt lat="45.71893" lon="7.16606">
        <ele>1327</ele>
        <time>2017-06-10T18:20:02Z</time>
      </trkpt>
      <trkpt lat="45.71893" lon="7.16614">
        <ele>1326</ele>
        <time>2017-06-10T18:20:03Z</time>
      </trkpt>
      <trkpt lat="45.71893" lon="7.16623">
        <ele>1326</ele>
        <time>2017-06-10T18:20:04Z</time>
      </trkpt>
      <trkpt lat="45.71894" lon="7.16633">
        <ele>1326</ele>
        <time>2017-06-10T18:20:05Z</time>
      </trkpt>
      <trkpt lat="45.71894" lon="7.16644">
        <ele>1328</ele>
        <time>2017-06-10T18:20:06Z</time>
      </trkpt>
      <trkpt lat="45.71894" lon="7.16654">
        <ele>1330</ele>
        <time>2017-06-10T18:20:07Z</time>
      </trkpt>
      <trkpt lat="45.71894" lon="7.16665">
        <ele>1331</ele>
        <time>2017-06-10T18:20:08Z</time>
      </trkpt>
      <trkpt lat="45.71893" lon="7.16673">
        <ele>1329</ele>
        <time>2017-06-10T18:20:09Z</time>
      </trkpt>
      <trkpt lat="45.71893" lon="7.16681">
        <ele>1327</ele>
        <time>2017-06-10T18:20:10Z</time>
      </trkpt>
      <trkpt lat="45.71892" lon="7.16687">
        <ele>1325</ele>
        <time>2017-06-10T18:20:11Z</time>
      </trkpt>
      <trkpt lat="45.71891" lon="7.16691">
        <ele>1324</ele>
        <time>2017-06-10T18:20:12Z</time>
      </trkpt>
      <trkpt lat="45.7189" lon="7.16694">
        <ele>1323</ele>
        <time>2017-06-10T18:20:13Z</time>
      </trkpt>
      <trkpt lat="45.7189" lon="7.16694">
        <ele>1323</ele>
        <time>2017-06-10T18:20:14Z</time>
      </trkpt>
      <trkpt lat="45.71889" lon="7.16693">
        <ele>1323</ele>
        <time>2017-06-10T18:20:15Z</time>
      </trkpt>
      <trkpt lat="45.71886" lon="7.16682">
        <ele>1323</ele>
        <time>2017-06-10T18:20:17Z</time>
      </trkpt>
      <trkpt lat="45.7188" lon="7.16667">
        <ele>1320</ele>
        <time>2017-06-10T18:20:19Z</time>
      </trkpt>
      <trkpt lat="45.71878" lon="7.16659">
        <ele>1320</ele>
        <time>2017-06-10T18:20:20Z</time>
      </trkpt>
      <trkpt lat="45.71876" lon="7.16649">
        <ele>1319</ele>
        <time>2017-06-10T18:20:21Z</time>
      </trkpt>
      <trkpt lat="45.71874" lon="7.1664">
        <ele>1318</ele>
        <time>2017-06-10T18:20:22Z</time>
      </trkpt>
      <trkpt lat="45.71872" lon="7.16631">
        <ele>1317</ele>
        <time>2017-06-10T18:20:23Z</time>
      </trkpt>
      <trkpt lat="45.71868" lon="7.16624">
        <ele>1315</ele>
        <time>2017-06-10T18:20:24Z</time>
      </trkpt>
      <trkpt lat="45.71862" lon="7.16607">
        <ele>1312</ele>
        <time>2017-06-10T18:20:26Z</time>
      </trkpt>
      <trkpt lat="45.71859" lon="7.16599">
        <ele>1309</ele>
        <time>2017-06-10T18:20:27Z</time>
      </trkpt>
      <trkpt lat="45.71857" lon="7.16593">
        <ele>1307</ele>
        <time>2017-06-10T18:20:28Z</time>
      </trkpt>
      <trkpt lat="45.71855" lon="7.16587">
        <ele>1305</ele>
        <time>2017-06-10T18:20:29Z</time>
      </trkpt>
      <trkpt lat="45.71853" lon="7.16582">
        <ele>1303</ele>
        <time>2017-06-10T18:20:30Z</time>
      </trkpt>
      <trkpt lat="45.71851" lon="7.16576">
        <ele>1302</ele>
        <time>2017-06-10T18:20:32Z</time>
      </trkpt>
      <trkpt lat="45.7185" lon="7.16576">
        <ele>1301</ele>
        <time>2017-06-10T18:20:35Z</time>
      </trkpt>
      <trkpt lat="45.71849" lon="7.16579">
        <ele>1300</ele>
        <time>2017-06-10T18:20:36Z</time>
      </trkpt>
      <trkpt lat="45.71848" lon="7.16597">
        <ele>1302</ele>
        <time>2017-06-10T18:20:40Z</time>
      </trkpt>
      <trkpt lat="45.71841" lon="7.16599">
        <ele>1300</ele>
        <time>2017-06-10T18:20:42Z</time>
      </trkpt>
      <trkpt lat="45.71837" lon="7.16594">
        <ele>1295</ele>
        <time>2017-06-10T18:20:43Z</time>
      </trkpt>
      <trkpt lat="45.71834" lon="7.16587">
        <ele>1288</ele>
        <time>2017-06-10T18:20:44Z</time>
      </trkpt>
      <trkpt lat="45.71832" lon="7.16578">
        <ele>1279</ele>
        <time>2017-06-10T18:20:45Z</time>
      </trkpt>
      <trkpt lat="45.7183" lon="7.16568">
        <ele>1273</ele>
        <time>2017-06-10T18:20:46Z</time>
      </trkpt>
      <trkpt lat="45.71832" lon="7.16556">
        <ele>1271</ele>
        <time>2017-06-10T18:20:47Z</time>
      </trkpt>
      <trkpt lat="45.71834" lon="7.1654">
        <ele>1305</ele>
        <time>2017-06-10T18:20:49Z</time>
      </trkpt>
      <trkpt lat="45.71835" lon="7.16534">
        <ele>1305</ele>
        <time>2017-06-10T18:20:50Z</time>
      </trkpt>
      <trkpt lat="45.71835" lon="7.1653">
        <ele>1304</ele>
        <time>2017-06-10T18:20:51Z</time>
      </trkpt>
      <trkpt lat="45.71835" lon="7.16523">
        <ele>1303</ele>
        <time>2017-06-10T18:20:53Z</time>
      </trkpt>
      <trkpt lat="45.71832" lon="7.16521">
        <ele>1274</ele>
        <time>2017-06-10T18:20:55Z</time>
      </trkpt>
      <trkpt lat="45.71829" lon="7.16521">
        <ele>1274</ele>
        <time>2017-06-10T18:20:57Z</time>
      </trkpt>
      <trkpt lat="45.71827" lon="7.16516">
        <ele>1275</ele>
        <time>2017-06-10T18:20:59Z</time>
      </trkpt>
      <trkpt lat="45.71826" lon="7.1651">
        <ele>1277</ele>
        <time>2017-06-10T18:21:01Z</time>
      </trkpt>
      <trkpt lat="45.71824" lon="7.16509">
        <ele>1277</ele>
        <time>2017-06-10T18:21:02Z</time>
      </trkpt>
      <trkpt lat="45.71823" lon="7.16511">
        <ele>1276</ele>
        <time>2017-06-10T18:21:03Z</time>
      </trkpt>
      <trkpt lat="45.71822" lon="7.16521">
        <ele>1272</ele>
        <time>2017-06-10T18:21:05Z</time>
      </trkpt>
      <trkpt lat="45.71822" lon="7.16531">
        <ele>1270</ele>
        <time>2017-06-10T18:21:08Z</time>
      </trkpt>
      <trkpt lat="45.71821" lon="7.16533">
        <ele>1269</ele>
        <time>2017-06-10T18:21:10Z</time>
      </trkpt>
      <trkpt lat="45.71818" lon="7.16528">
        <ele>1269</ele>
        <time>2017-06-10T18:21:12Z</time>
      </trkpt>
      <trkpt lat="45.71816" lon="7.16522">
        <ele>1270</ele>
        <time>2017-06-10T18:21:13Z</time>
      </trkpt>
      <trkpt lat="45.71813" lon="7.16515">
        <ele>1270</ele>
        <time>2017-06-10T18:21:14Z</time>
      </trkpt>
      <trkpt lat="45.7181" lon="7.16507">
        <ele>1270</ele>
        <time>2017-06-10T18:21:15Z</time>
      </trkpt>
      <trkpt lat="45.71808" lon="7.165">
        <ele>1270</ele>
        <time>2017-06-10T18:21:16Z</time>
      </trkpt>
      <trkpt lat="45.71806" lon="7.16492">
        <ele>1269</ele>
        <time>2017-06-10T18:21:17Z</time>
      </trkpt>
      <trkpt lat="45.71804" lon="7.16484">
        <ele>1267</ele>
        <time>2017-06-10T18:21:18Z</time>
      </trkpt>
      <trkpt lat="45.71802" lon="7.16477">
        <ele>1266</ele>
        <time>2017-06-10T18:21:19Z</time>
      </trkpt>
      <trkpt lat="45.71801" lon="7.1647">
        <ele>1265</ele>
        <time>2017-06-10T18:21:20Z</time>
      </trkpt>
      <trkpt lat="45.718" lon="7.16465">
        <ele>1264</ele>
        <time>2017-06-10T18:21:21Z</time>
      </trkpt>
      <trkpt lat="45.71797" lon="7.16455">
        <ele>1263</ele>
        <time>2017-06-10T18:21:23Z</time>
      </trkpt>
      <trkpt lat="45.71796" lon="7.16447">
        <ele>1263</ele>
        <time>2017-06-10T18:21:25Z</time>
      </trkpt>
      <trkpt lat="45.71795" lon="7.16443">
        <ele>1262</ele>
        <time>2017-06-10T18:21:26Z</time>
      </trkpt>
      <trkpt lat="45.71796" lon="7.16438">
        <ele>1263</ele>
        <time>2017-06-10T18:21:27Z</time>
      </trkpt>
      <trkpt lat="45.71796" lon="7.16429">
        <ele>1263</ele>
        <time>2017-06-10T18:21:29Z</time>
      </trkpt>
      <trkpt lat="45.71797" lon="7.1642">
        <ele>1263</ele>
        <time>2017-06-10T18:21:32Z</time>
      </trkpt>
      <trkpt lat="45.71795" lon="7.16416">
        <ele>1258</ele>
        <time>2017-06-10T18:21:48Z</time>
      </trkpt>
      <trkpt lat="45.71797" lon="7.16413">
        <ele>1258</ele>
        <time>2017-06-10T18:21:59Z</time>
      </trkpt>
      <trkpt lat="45.71799" lon="7.16411">
        <ele>1259</ele>
        <time>2017-06-10T18:22:01Z</time>
      </trkpt>
      <trkpt lat="45.71802" lon="7.16405">
        <ele>1260</ele>
        <time>2017-06-10T18:22:05Z</time>
      </trkpt>
      <trkpt lat="45.718" lon="7.16404">
        <ele>1259</ele>
        <time>2017-06-10T18:22:38Z</time>
      </trkpt>
      <trkpt lat="45.71793" lon="7.16419">
        <ele>1262</ele>
        <time>2017-06-10T18:22:42Z</time>
      </trkpt>
      <trkpt lat="45.71787" lon="7.16433">
        <ele>1260</ele>
        <time>2017-06-10T18:22:44Z</time>
      </trkpt>
      <trkpt lat="45.71781" lon="7.16444">
        <ele>1258</ele>
        <time>2017-06-10T18:22:46Z</time>
      </trkpt>
      <trkpt lat="45.71778" lon="7.16447">
        <ele>1258</ele>
        <time>2017-06-10T18:22:47Z</time>
      </trkpt>
      <trkpt lat="45.71775" lon="7.1645">
        <ele>1257</ele>
        <time>2017-06-10T18:22:48Z</time>
      </trkpt>
      <trkpt lat="45.71772" lon="7.16451">
        <ele>1257</ele>
        <time>2017-06-10T18:22:49Z</time>
      </trkpt>
      <trkpt lat="45.7177" lon="7.16449">
        <ele>1256</ele>
        <time>2017-06-10T18:22:50Z</time>
      </trkpt>
      <trkpt lat="45.71768" lon="7.16445">
        <ele>1255</ele>
        <time>2017-06-10T18:22:51Z</time>
      </trkpt>
      <trkpt lat="45.71766" lon="7.16441">
        <ele>1254</ele>
        <time>2017-06-10T18:22:52Z</time>
      </trkpt>
      <trkpt lat="45.71764" lon="7.1644">
        <ele>1253</ele>
        <time>2017-06-10T18:22:53Z</time>
      </trkpt>
      <trkpt lat="45.71754" lon="7.1644">
        <ele>1252</ele>
        <time>2017-06-10T18:22:55Z</time>
      </trkpt>
      <trkpt lat="45.71743" lon="7.16442">
        <ele>1238</ele>
        <time>2017-06-10T18:22:57Z</time>
      </trkpt>
      <trkpt lat="45.71732" lon="7.16452">
        <ele>1238</ele>
        <time>2017-06-10T18:22:59Z</time>
      </trkpt>
      <trkpt lat="45.71722" lon="7.16465">
        <ele>1237</ele>
        <time>2017-06-10T18:23:01Z</time>
      </trkpt>
      <trkpt lat="45.71717" lon="7.16472">
        <ele>1237</ele>
        <time>2017-06-10T18:23:02Z</time>
      </trkpt>
      <trkpt lat="45.71711" lon="7.16478">
        <ele>1237</ele>
        <time>2017-06-10T18:23:03Z</time>
      </trkpt>
      <trkpt lat="45.71705" lon="7.16484">
        <ele>1236</ele>
        <time>2017-06-10T18:23:04Z</time>
      </trkpt>
      <trkpt lat="45.71699" lon="7.16489">
        <ele>1236</ele>
        <time>2017-06-10T18:23:05Z</time>
      </trkpt>
      <trkpt lat="45.71688" lon="7.165">
        <ele>1235</ele>
        <time>2017-06-10T18:23:07Z</time>
      </trkpt>
      <trkpt lat="45.71683" lon="7.16505">
        <ele>1231</ele>
        <time>2017-06-10T18:23:08Z</time>
      </trkpt>
      <trkpt lat="45.71678" lon="7.1651">
        <ele>1231</ele>
        <time>2017-06-10T18:23:09Z</time>
      </trkpt>
      <trkpt lat="45.71674" lon="7.16515">
        <ele>1231</ele>
        <time>2017-06-10T18:23:10Z</time>
      </trkpt>
      <trkpt lat="45.71669" lon="7.16519">
        <ele>1230</ele>
        <time>2017-06-10T18:23:11Z</time>
      </trkpt>
      <trkpt lat="45.71662" lon="7.16525">
        <ele>1224</ele>
        <time>2017-06-10T18:23:12Z</time>
      </trkpt>
      <trkpt lat="45.71655" lon="7.16531">
        <ele>1222</ele>
        <time>2017-06-10T18:23:13Z</time>
      </trkpt>
      <trkpt lat="45.7164" lon="7.16543">
        <ele>1220</ele>
        <time>2017-06-10T18:23:15Z</time>
      </trkpt>
      <trkpt lat="45.71632" lon="7.1655">
        <ele>1219</ele>
        <time>2017-06-10T18:23:16Z</time>
      </trkpt>
      <trkpt lat="45.71624" lon="7.16554">
        <ele>1218</ele>
        <time>2017-06-10T18:23:17Z</time>
      </trkpt>
      <trkpt lat="45.71616" lon="7.16557">
        <ele>1217</ele>
        <time>2017-06-10T18:23:18Z</time>
      </trkpt>
      <trkpt lat="45.71608" lon="7.16558">
        <ele>1216</ele>
        <time>2017-06-10T18:23:19Z</time>
      </trkpt>
      <trkpt lat="45.71599" lon="7.16561">
        <ele>1215</ele>
        <time>2017-06-10T18:23:20Z</time>
      </trkpt>
      <trkpt lat="45.71591" lon="7.16564">
        <ele>1214</ele>
        <time>2017-06-10T18:23:21Z</time>
      </trkpt>
      <trkpt lat="45.71582" lon="7.16567">
        <ele>1208</ele>
        <time>2017-06-10T18:23:22Z</time>
      </trkpt>
      <trkpt lat="45.71573" lon="7.16569">
        <ele>1208</ele>
        <time>2017-06-10T18:23:23Z</time>
      </trkpt>
      <trkpt lat="45.71564" lon="7.1657">
        <ele>1208</ele>
        <time>2017-06-10T18:23:24Z</time>
      </trkpt>
      <trkpt lat="45.71556" lon="7.1657">
        <ele>1208</ele>
        <time>2017-06-10T18:23:25Z</time>
      </trkpt>
      <trkpt lat="45.71549" lon="7.1657">
        <ele>1208</ele>
        <time>2017-06-10T18:23:26Z</time>
      </trkpt>
      <trkpt lat="45.71536" lon="7.16569">
        <ele>1207</ele>
        <time>2017-06-10T18:23:28Z</time>
      </trkpt>
      <trkpt lat="45.71525" lon="7.16566">
        <ele>1206</ele>
        <time>2017-06-10T18:23:30Z</time>
      </trkpt>
      <trkpt lat="45.71519" lon="7.16566">
        <ele>1206</ele>
        <time>2017-06-10T18:23:31Z</time>
      </trkpt>
      <trkpt lat="45.71514" lon="7.16568">
        <ele>1205</ele>
        <time>2017-06-10T18:23:32Z</time>
      </trkpt>
      <trkpt lat="45.71509" lon="7.16568">
        <ele>1204</ele>
        <time>2017-06-10T18:23:33Z</time>
      </trkpt>
      <trkpt lat="45.71504" lon="7.16568">
        <ele>1204</ele>
        <time>2017-06-10T18:23:34Z</time>
      </trkpt>
      <trkpt lat="45.715" lon="7.16564">
        <ele>1200</ele>
        <time>2017-06-10T18:23:35Z</time>
      </trkpt>
      <trkpt lat="45.71493" lon="7.16548">
        <ele>1201</ele>
        <time>2017-06-10T18:23:37Z</time>
      </trkpt>
      <trkpt lat="45.71484" lon="7.16527">
        <ele>1201</ele>
        <time>2017-06-10T18:23:39Z</time>
      </trkpt>
      <trkpt lat="45.7148" lon="7.16516">
        <ele>1202</ele>
        <time>2017-06-10T18:23:40Z</time>
      </trkpt>
      <trkpt lat="45.71475" lon="7.16504">
        <ele>1202</ele>
        <time>2017-06-10T18:23:41Z</time>
      </trkpt>
      <trkpt lat="45.71466" lon="7.16478">
        <ele>1202</ele>
        <time>2017-06-10T18:23:43Z</time>
      </trkpt>
      <trkpt lat="45.71456" lon="7.16452">
        <ele>1202</ele>
        <time>2017-06-10T18:23:45Z</time>
      </trkpt>
      <trkpt lat="45.71451" lon="7.1644">
        <ele>1201</ele>
        <time>2017-06-10T18:23:46Z</time>
      </trkpt>
      <trkpt lat="45.71448" lon="7.16428">
        <ele>1200</ele>
        <time>2017-06-10T18:23:47Z</time>
      </trkpt>
      <trkpt lat="45.71441" lon="7.16405">
        <ele>1201</ele>
        <time>2017-06-10T18:23:49Z</time>
      </trkpt>
      <trkpt lat="45.71434" lon="7.16382">
        <ele>1202</ele>
        <time>2017-06-10T18:23:51Z</time>
      </trkpt>
      <trkpt lat="45.71429" lon="7.16372">
        <ele>1202</ele>
        <time>2017-06-10T18:23:52Z</time>
      </trkpt>
      <trkpt lat="45.71414" lon="7.16342">
        <ele>1196</ele>
        <time>2017-06-10T18:23:55Z</time>
      </trkpt>
      <trkpt lat="45.71402" lon="7.16307">
        <ele>1192</ele>
        <time>2017-06-10T18:23:58Z</time>
      </trkpt>
      <trkpt lat="45.71397" lon="7.16296">
        <ele>1192</ele>
        <time>2017-06-10T18:23:59Z</time>
      </trkpt>
      <trkpt lat="45.71392" lon="7.16286">
        <ele>1191</ele>
        <time>2017-06-10T18:24:00Z</time>
      </trkpt>
      <trkpt lat="45.71386" lon="7.16274">
        <ele>1190</ele>
        <time>2017-06-10T18:24:01Z</time>
      </trkpt>
      <trkpt lat="45.71381" lon="7.16262">
        <ele>1190</ele>
        <time>2017-06-10T18:24:02Z</time>
      </trkpt>
      <trkpt lat="45.71369" lon="7.16236">
        <ele>1182</ele>
        <time>2017-06-10T18:24:04Z</time>
      </trkpt>
      <trkpt lat="45.71356" lon="7.16209">
        <ele>1180</ele>
        <time>2017-06-10T18:24:06Z</time>
      </trkpt>
      <trkpt lat="45.71348" lon="7.16197">
        <ele>1178</ele>
        <time>2017-06-10T18:24:07Z</time>
      </trkpt>
      <trkpt lat="45.71341" lon="7.16185">
        <ele>1176</ele>
        <time>2017-06-10T18:24:08Z</time>
      </trkpt>
      <trkpt lat="45.71334" lon="7.16173">
        <ele>1172</ele>
        <time>2017-06-10T18:24:09Z</time>
      </trkpt>
      <trkpt lat="45.71328" lon="7.1616">
        <ele>1173</ele>
        <time>2017-06-10T18:24:10Z</time>
      </trkpt>
      <trkpt lat="45.71324" lon="7.16147">
        <ele>1175</ele>
        <time>2017-06-10T18:24:11Z</time>
      </trkpt>
      <trkpt lat="45.7132" lon="7.16133">
        <ele>1176</ele>
        <time>2017-06-10T18:24:12Z</time>
      </trkpt>
      <trkpt lat="45.71315" lon="7.16108">
        <ele>1175</ele>
        <time>2017-06-10T18:24:14Z</time>
      </trkpt>
      <trkpt lat="45.7131" lon="7.16083">
        <ele>1174</ele>
        <time>2017-06-10T18:24:16Z</time>
      </trkpt>
      <trkpt lat="45.71302" lon="7.16049">
        <ele>1172</ele>
        <time>2017-06-10T18:24:19Z</time>
      </trkpt>
      <trkpt lat="45.71288" lon="7.15978">
        <ele>1170</ele>
        <time>2017-06-10T18:24:26Z</time>
      </trkpt>
      <trkpt lat="45.71275" lon="7.15924">
        <ele>1171</ele>
        <time>2017-06-10T18:24:33Z</time>
      </trkpt>
      <trkpt lat="45.71265" lon="7.15888">
        <ele>1167</ele>
        <time>2017-06-10T18:24:38Z</time>
      </trkpt>
      <trkpt lat="45.71236" lon="7.15836">
        <ele>1165</ele>
        <time>2017-06-10T18:24:54Z</time>
      </trkpt>
      <trkpt lat="45.71236" lon="7.15836">
        <ele>1165</ele>
        <time>2017-06-10T18:25:02Z</time>
      </trkpt>
      <trkpt lat="45.71232" lon="7.1583">
        <ele>1157</ele>
        <time>2017-06-10T18:25:06Z</time>
      </trkpt>
      <trkpt lat="45.71232" lon="7.15819">
        <ele>1156</ele>
        <time>2017-06-10T18:25:11Z</time>
      </trkpt>
      <trkpt lat="45.71234" lon="7.15815">
        <ele>1156</ele>
        <time>2017-06-10T18:25:42Z</time>
      </trkpt>
      <trkpt lat="45.71232" lon="7.15812">
        <ele>1156</ele>
        <time>2017-06-10T18:26:09Z</time>
      </trkpt>
      <trkpt lat="45.7123" lon="7.1581">
        <ele>1155</ele>
        <time>2017-06-10T18:26:25Z</time>
      </trkpt>
      <trkpt lat="45.71227" lon="7.15813">
        <ele>1155</ele>
        <time>2017-06-10T18:27:45Z</time>
      </trkpt>
      <trkpt lat="45.71221" lon="7.15808">
        <ele>1155</ele>
        <time>2017-06-10T18:27:49Z</time>
      </trkpt>
      <trkpt lat="45.7122" lon="7.15804">
        <ele>1154</ele>
        <time>2017-06-10T18:27:50Z</time>
      </trkpt>
      <trkpt lat="45.71215" lon="7.15796">
        <ele>1153</ele>
        <time>2017-06-10T18:27:52Z</time>
      </trkpt>
      <trkpt lat="45.71212" lon="7.15793">
        <ele>1153</ele>
        <time>2017-06-10T18:27:53Z</time>
      </trkpt>
      <trkpt lat="45.71209" lon="7.15788">
        <ele>1152</ele>
        <time>2017-06-10T18:27:54Z</time>
      </trkpt>
      <trkpt lat="45.71206" lon="7.15783">
        <ele>1152</ele>
        <time>2017-06-10T18:27:55Z</time>
      </trkpt>
      <trkpt lat="45.71203" lon="7.15775">
        <ele>1151</ele>
        <time>2017-06-10T18:27:57Z</time>
      </trkpt>
      <trkpt lat="45.71202" lon="7.15766">
        <ele>1150</ele>
        <time>2017-06-10T18:27:59Z</time>
      </trkpt>
      <trkpt lat="45.71202" lon="7.15756">
        <ele>1149</ele>
        <time>2017-06-10T18:28:01Z</time>
      </trkpt>
      <trkpt lat="45.71203" lon="7.15749">
        <ele>1138</ele>
        <time>2017-06-10T18:28:03Z</time>
      </trkpt>
      <trkpt lat="45.71205" lon="7.15746">
        <ele>1138</ele>
        <time>2017-06-10T18:28:04Z</time>
      </trkpt>
      <trkpt lat="45.71205" lon="7.15745">
        <ele>1138</ele>
        <time>2017-06-10T18:28:05Z</time>
      </trkpt>
      <trkpt lat="45.71206" lon="7.15743">
        <ele>1138</ele>
        <time>2017-06-10T18:28:06Z</time>
      </trkpt>
      <trkpt lat="45.71205" lon="7.1574">
        <ele>1138</ele>
        <time>2017-06-10T18:28:08Z</time>
      </trkpt>
      <trkpt lat="45.71203" lon="7.15739">
        <ele>1138</ele>
        <time>2017-06-10T18:28:09Z</time>
      </trkpt>
      <trkpt lat="45.71202" lon="7.15737">
        <ele>1138</ele>
        <time>2017-06-10T18:28:10Z</time>
      </trkpt>
      <trkpt lat="45.71199" lon="7.15736">
        <ele>1137</ele>
        <time>2017-06-10T18:28:12Z</time>
      </trkpt>
      <trkpt lat="45.71197" lon="7.15733">
        <ele>1137</ele>
        <time>2017-06-10T18:28:14Z</time>
      </trkpt>
      <trkpt lat="45.71197" lon="7.15731">
        <ele>1137</ele>
        <time>2017-06-10T18:28:15Z</time>
      </trkpt>
      <trkpt lat="45.71197" lon="7.15728">
        <ele>1137</ele>
        <time>2017-06-10T18:28:16Z</time>
      </trkpt>
      <trkpt lat="45.71198" lon="7.15719">
        <ele>1136</ele>
        <time>2017-06-10T18:28:19Z</time>
      </trkpt>
      <trkpt lat="45.71202" lon="7.15713">
        <ele>1136</ele>
        <time>2017-06-10T18:28:21Z</time>
      </trkpt>
      <trkpt lat="45.71205" lon="7.15701">
        <ele>1135</ele>
        <time>2017-06-10T18:28:24Z</time>
      </trkpt>
      <trkpt lat="45.71205" lon="7.15689">
        <ele>1134</ele>
        <time>2017-06-10T18:28:26Z</time>
      </trkpt>
      <trkpt lat="45.71204" lon="7.15678">
        <ele>1133</ele>
        <time>2017-06-10T18:28:28Z</time>
      </trkpt>
      <trkpt lat="45.71199" lon="7.15663">
        <ele>1124</ele>
        <time>2017-06-10T18:28:31Z</time>
      </trkpt>
      <trkpt lat="45.71195" lon="7.15654">
        <ele>1123</ele>
        <time>2017-06-10T18:28:33Z</time>
      </trkpt>
      <trkpt lat="45.71195" lon="7.1565">
        <ele>1123</ele>
        <time>2017-06-10T18:28:34Z</time>
      </trkpt>
      <trkpt lat="45.71192" lon="7.15643">
        <ele>1122</ele>
        <time>2017-06-10T18:28:35Z</time>
      </trkpt>
      <trkpt lat="45.7119" lon="7.15638">
        <ele>1122</ele>
        <time>2017-06-10T18:28:36Z</time>
      </trkpt>
      <trkpt lat="45.71186" lon="7.15628">
        <ele>1121</ele>
        <time>2017-06-10T18:28:37Z</time>
      </trkpt>
      <trkpt lat="45.7118" lon="7.15609">
        <ele>1117</ele>
        <time>2017-06-10T18:28:39Z</time>
      </trkpt>
      <trkpt lat="45.71176" lon="7.15599">
        <ele>1113</ele>
        <time>2017-06-10T18:28:41Z</time>
      </trkpt>
      <trkpt lat="45.71174" lon="7.15593">
        <ele>1110</ele>
        <time>2017-06-10T18:28:42Z</time>
      </trkpt>
      <trkpt lat="45.71173" lon="7.15582">
        <ele>1103</ele>
        <time>2017-06-10T18:28:44Z</time>
      </trkpt>
      <trkpt lat="45.71171" lon="7.15579">
        <ele>1103</ele>
        <time>2017-06-10T18:28:45Z</time>
      </trkpt>
      <trkpt lat="45.71168" lon="7.15574">
        <ele>1104</ele>
        <time>2017-06-10T18:28:46Z</time>
      </trkpt>
      <trkpt lat="45.71167" lon="7.1557">
        <ele>1104</ele>
        <time>2017-06-10T18:28:47Z</time>
      </trkpt>
      <trkpt lat="45.71165" lon="7.1556">
        <ele>1094</ele>
        <time>2017-06-10T18:28:49Z</time>
      </trkpt>
      <trkpt lat="45.71163" lon="7.15551">
        <ele>1092</ele>
        <time>2017-06-10T18:28:51Z</time>
      </trkpt>
      <trkpt lat="45.71163" lon="7.15545">
        <ele>1091</ele>
        <time>2017-06-10T18:28:53Z</time>
      </trkpt>
      <trkpt lat="45.71162" lon="7.15542">
        <ele>1090</ele>
        <time>2017-06-10T18:28:55Z</time>
      </trkpt>
      <trkpt lat="45.71161" lon="7.15538">
        <ele>1090</ele>
        <time>2017-06-10T18:28:59Z</time>
      </trkpt>
      <trkpt lat="45.71161" lon="7.15537">
        <ele>1090</ele>
        <time>2017-06-10T18:29:00Z</time>
      </trkpt>
      <trkpt lat="45.71158" lon="7.15531">
        <ele>1089</ele>
        <time>2017-06-10T18:29:02Z</time>
      </trkpt>
      <trkpt lat="45.71157" lon="7.15528">
        <ele>1089</ele>
        <time>2017-06-10T18:29:03Z</time>
      </trkpt>
      <trkpt lat="45.71157" lon="7.15524">
        <ele>1088</ele>
        <time>2017-06-10T18:29:04Z</time>
      </trkpt>
      <trkpt lat="45.71156" lon="7.15517">
        <ele>1088</ele>
        <time>2017-06-10T18:29:06Z</time>
      </trkpt>
      <trkpt lat="45.71155" lon="7.15511">
        <ele>1088</ele>
        <time>2017-06-10T18:29:08Z</time>
      </trkpt>
      <trkpt lat="45.71154" lon="7.15508">
        <ele>1087</ele>
        <time>2017-06-10T18:29:09Z</time>
      </trkpt>
      <trkpt lat="45.71154" lon="7.15507">
        <ele>1087</ele>
        <time>2017-06-10T18:29:10Z</time>
      </trkpt>
      <trkpt lat="45.71153" lon="7.15506">
        <ele>1087</ele>
        <time>2017-06-10T18:29:11Z</time>
      </trkpt>
      <trkpt lat="45.71152" lon="7.15503">
        <ele>1087</ele>
        <time>2017-06-10T18:29:14Z</time>
      </trkpt>
      <trkpt lat="45.71151" lon="7.15498">
        <ele>1078</ele>
        <time>2017-06-10T18:29:25Z</time>
      </trkpt>
      <trkpt lat="45.7115" lon="7.15495">
        <ele>1078</ele>
        <time>2017-06-10T18:29:34Z</time>
      </trkpt>
      <trkpt lat="45.71151" lon="7.15484">
        <ele>1076</ele>
        <time>2017-06-10T18:29:37Z</time>
      </trkpt>
      <trkpt lat="45.71151" lon="7.15478">
        <ele>1074</ele>
        <time>2017-06-10T18:29:38Z</time>
      </trkpt>
      <trkpt lat="45.71153" lon="7.15466">
        <ele>1072</ele>
        <time>2017-06-10T18:29:40Z</time>
      </trkpt>
      <trkpt lat="45.71157" lon="7.15459">
        <ele>1070</ele>
        <time>2017-06-10T18:29:42Z</time>
      </trkpt>
      <trkpt lat="45.7116" lon="7.15455">
        <ele>1069</ele>
        <time>2017-06-10T18:29:44Z</time>
      </trkpt>
      <trkpt lat="45.71158" lon="7.15452">
        <ele>1069</ele>
        <time>2017-06-10T18:29:45Z</time>
      </trkpt>
      <trkpt lat="45.71155" lon="7.15449">
        <ele>1068</ele>
        <time>2017-06-10T18:29:46Z</time>
      </trkpt>
      <trkpt lat="45.71148" lon="7.15446">
        <ele>1067</ele>
        <time>2017-06-10T18:29:48Z</time>
      </trkpt>
      <trkpt lat="45.71143" lon="7.15442">
        <ele>1067</ele>
        <time>2017-06-10T18:29:49Z</time>
      </trkpt>
      <trkpt lat="45.71139" lon="7.1544">
        <ele>1066</ele>
        <time>2017-06-10T18:29:50Z</time>
      </trkpt>
      <trkpt lat="45.71135" lon="7.15438">
        <ele>1066</ele>
        <time>2017-06-10T18:29:51Z</time>
      </trkpt>
      <trkpt lat="45.71132" lon="7.15438">
        <ele>1066</ele>
        <time>2017-06-10T18:29:52Z</time>
      </trkpt>
      <trkpt lat="45.7113" lon="7.1544">
        <ele>1066</ele>
        <time>2017-06-10T18:29:53Z</time>
      </trkpt>
      <trkpt lat="45.71128" lon="7.15442">
        <ele>1066</ele>
        <time>2017-06-10T18:29:54Z</time>
      </trkpt>
      <trkpt lat="45.71126" lon="7.15451">
        <ele>1067</ele>
        <time>2017-06-10T18:29:56Z</time>
      </trkpt>
      <trkpt lat="45.71125" lon="7.15468">
        <ele>1069</ele>
        <time>2017-06-10T18:29:59Z</time>
      </trkpt>
      <trkpt lat="45.71106" lon="7.15507">
        <ele>1082</ele>
        <time>2017-06-10T18:30:09Z</time>
      </trkpt>
      <trkpt lat="45.71083" lon="7.15521">
        <ele>1084</ele>
        <time>2017-06-10T18:30:20Z</time>
      </trkpt>
      <trkpt lat="45.71073" lon="7.15514">
        <ele>1083</ele>
        <time>2017-06-10T18:30:36Z</time>
      </trkpt>
      <trkpt lat="45.71067" lon="7.15511">
        <ele>1084</ele>
        <time>2017-06-10T18:30:39Z</time>
      </trkpt>
      <trkpt lat="45.71063" lon="7.15507">
        <ele>1085</ele>
        <time>2017-06-10T18:30:41Z</time>
      </trkpt>
      <trkpt lat="45.71044" lon="7.15483">
        <ele>1073</ele>
        <time>2017-06-10T18:30:48Z</time>
      </trkpt>
      <trkpt lat="45.7102" lon="7.15459">
        <ele>1072</ele>
        <time>2017-06-10T18:30:57Z</time>
      </trkpt>
      <trkpt lat="45.71018" lon="7.15455">
        <ele>1072</ele>
        <time>2017-06-10T18:30:58Z</time>
      </trkpt>
      <trkpt lat="45.71013" lon="7.15446">
        <ele>1071</ele>
        <time>2017-06-10T18:31:00Z</time>
      </trkpt>
      <trkpt lat="45.71005" lon="7.15431">
        <ele>1068</ele>
        <time>2017-06-10T18:31:02Z</time>
      </trkpt>
      <trkpt lat="45.71002" lon="7.15421">
        <ele>1067</ele>
        <time>2017-06-10T18:31:03Z</time>
      </trkpt>
      <trkpt lat="45.70999" lon="7.15411">
        <ele>1067</ele>
        <time>2017-06-10T18:31:04Z</time>
      </trkpt>
      <trkpt lat="45.70996" lon="7.154">
        <ele>1068</ele>
        <time>2017-06-10T18:31:05Z</time>
      </trkpt>
      <trkpt lat="45.70992" lon="7.1538">
        <ele>1067</ele>
        <time>2017-06-10T18:31:07Z</time>
      </trkpt>
      <trkpt lat="45.7099" lon="7.15372">
        <ele>1066</ele>
        <time>2017-06-10T18:31:08Z</time>
      </trkpt>
      <trkpt lat="45.70987" lon="7.15365">
        <ele>1064</ele>
        <time>2017-06-10T18:31:09Z</time>
      </trkpt>
      <trkpt lat="45.70986" lon="7.15358">
        <ele>1062</ele>
        <time>2017-06-10T18:31:10Z</time>
      </trkpt>
      <trkpt lat="45.70982" lon="7.15348">
        <ele>1061</ele>
        <time>2017-06-10T18:31:12Z</time>
      </trkpt>
      <trkpt lat="45.70981" lon="7.15344">
        <ele>1060</ele>
        <time>2017-06-10T18:31:13Z</time>
      </trkpt>
      <trkpt lat="45.7098" lon="7.15341">
        <ele>1060</ele>
        <time>2017-06-10T18:31:14Z</time>
      </trkpt>
      <trkpt lat="45.70979" lon="7.15339">
        <ele>1060</ele>
        <time>2017-06-10T18:31:15Z</time>
      </trkpt>
      <trkpt lat="45.7098" lon="7.1534">
        <ele>1060</ele>
        <time>2017-06-10T18:31:16Z</time>
      </trkpt>
      <trkpt lat="45.70982" lon="7.1534">
        <ele>1058</ele>
        <time>2017-06-10T18:31:18Z</time>
      </trkpt>
      <trkpt lat="45.70981" lon="7.15335">
        <ele>1058</ele>
        <time>2017-06-10T18:31:21Z</time>
      </trkpt>
      <trkpt lat="45.70979" lon="7.1533">
        <ele>1047</ele>
        <time>2017-06-10T18:31:22Z</time>
      </trkpt>
      <trkpt lat="45.70977" lon="7.15324">
        <ele>1047</ele>
        <time>2017-06-10T18:31:23Z</time>
      </trkpt>
      <trkpt lat="45.70975" lon="7.15318">
        <ele>1047</ele>
        <time>2017-06-10T18:31:24Z</time>
      </trkpt>
      <trkpt lat="45.70974" lon="7.15312">
        <ele>1047</ele>
        <time>2017-06-10T18:31:25Z</time>
      </trkpt>
      <trkpt lat="45.70973" lon="7.15308">
        <ele>1047</ele>
        <time>2017-06-10T18:31:26Z</time>
      </trkpt>
      <trkpt lat="45.70974" lon="7.15302">
        <ele>1046</ele>
        <time>2017-06-10T18:31:28Z</time>
      </trkpt>
      <trkpt lat="45.70974" lon="7.15297">
        <ele>1045</ele>
        <time>2017-06-10T18:31:30Z</time>
      </trkpt>
      <trkpt lat="45.70973" lon="7.15289">
        <ele>1044</ele>
        <time>2017-06-10T18:31:32Z</time>
      </trkpt>
      <trkpt lat="45.70974" lon="7.15287">
        <ele>1043</ele>
        <time>2017-06-10T18:31:33Z</time>
      </trkpt>
      <trkpt lat="45.70976" lon="7.15287">
        <ele>1043</ele>
        <time>2017-06-10T18:31:34Z</time>
      </trkpt>
      <trkpt lat="45.70979" lon="7.15288">
        <ele>1043</ele>
        <time>2017-06-10T18:31:35Z</time>
      </trkpt>
      <trkpt lat="45.70979" lon="7.15285">
        <ele>1042</ele>
        <time>2017-06-10T18:31:37Z</time>
      </trkpt>
      <trkpt lat="45.70978" lon="7.15278">
        <ele>1040</ele>
        <time>2017-06-10T18:31:39Z</time>
      </trkpt>
      <trkpt lat="45.70971" lon="7.15257">
        <ele>1038</ele>
        <time>2017-06-10T18:31:42Z</time>
      </trkpt>
      <trkpt lat="45.70962" lon="7.15238">
        <ele>1021</ele>
        <time>2017-06-10T18:31:44Z</time>
      </trkpt>
      <trkpt lat="45.70957" lon="7.15228">
        <ele>1021</ele>
        <time>2017-06-10T18:31:45Z</time>
      </trkpt>
      <trkpt lat="45.70953" lon="7.15219">
        <ele>1021</ele>
        <time>2017-06-10T18:31:46Z</time>
      </trkpt>
      <trkpt lat="45.70949" lon="7.15211">
        <ele>1020</ele>
        <time>2017-06-10T18:31:47Z</time>
      </trkpt>
      <trkpt lat="45.70945" lon="7.15204">
        <ele>1020</ele>
        <time>2017-06-10T18:31:48Z</time>
      </trkpt>
      <trkpt lat="45.7094" lon="7.15197">
        <ele>1020</ele>
        <time>2017-06-10T18:31:49Z</time>
      </trkpt>
      <trkpt lat="45.70936" lon="7.15189">
        <ele>1020</ele>
        <time>2017-06-10T18:31:50Z</time>
      </trkpt>
      <trkpt lat="45.70933" lon="7.1518">
        <ele>1020</ele>
        <time>2017-06-10T18:31:51Z</time>
      </trkpt>
      <trkpt lat="45.7093" lon="7.15172">
        <ele>1021</ele>
        <time>2017-06-10T18:31:52Z</time>
      </trkpt>
      <trkpt lat="45.70926" lon="7.15164">
        <ele>1010</ele>
        <time>2017-06-10T18:31:53Z</time>
      </trkpt>
      <trkpt lat="45.70924" lon="7.15157">
        <ele>1008</ele>
        <time>2017-06-10T18:31:54Z</time>
      </trkpt>
      <trkpt lat="45.7092" lon="7.1515">
        <ele>1004</ele>
        <time>2017-06-10T18:31:55Z</time>
      </trkpt>
      <trkpt lat="45.70917" lon="7.15143">
        <ele>999</ele>
        <time>2017-06-10T18:31:56Z</time>
      </trkpt>
      <trkpt lat="45.70914" lon="7.15135">
        <ele>1019</ele>
        <time>2017-06-10T18:31:57Z</time>
      </trkpt>
      <trkpt lat="45.70913" lon="7.15127">
        <ele>1017</ele>
        <time>2017-06-10T18:31:58Z</time>
      </trkpt>
      <trkpt lat="45.70911" lon="7.15119">
        <ele>1014</ele>
        <time>2017-06-10T18:31:59Z</time>
      </trkpt>
      <trkpt lat="45.70907" lon="7.15111">
        <ele>1011</ele>
        <time>2017-06-10T18:32:00Z</time>
      </trkpt>
      <trkpt lat="45.70905" lon="7.15104">
        <ele>1008</ele>
        <time>2017-06-10T18:32:01Z</time>
      </trkpt>
      <trkpt lat="45.70902" lon="7.15097">
        <ele>1005</ele>
        <time>2017-06-10T18:32:02Z</time>
      </trkpt>
      <trkpt lat="45.709" lon="7.15092">
        <ele>1004</ele>
        <time>2017-06-10T18:32:03Z</time>
      </trkpt>
      <trkpt lat="45.70899" lon="7.15088">
        <ele>1004</ele>
        <time>2017-06-10T18:32:04Z</time>
      </trkpt>
      <trkpt lat="45.70896" lon="7.15084">
        <ele>1005</ele>
        <time>2017-06-10T18:32:05Z</time>
      </trkpt>
      <trkpt lat="45.70892" lon="7.1508">
        <ele>985</ele>
        <time>2017-06-10T18:32:06Z</time>
      </trkpt>
      <trkpt lat="45.70889" lon="7.15076">
        <ele>985</ele>
        <time>2017-06-10T18:32:07Z</time>
      </trkpt>
      <trkpt lat="45.70885" lon="7.15071">
        <ele>986</ele>
        <time>2017-06-10T18:32:09Z</time>
      </trkpt>
      <trkpt lat="45.70882" lon="7.1507">
        <ele>986</ele>
        <time>2017-06-10T18:32:11Z</time>
      </trkpt>
      <trkpt lat="45.70879" lon="7.15071">
        <ele>988</ele>
        <time>2017-06-10T18:32:13Z</time>
      </trkpt>
      <trkpt lat="45.70878" lon="7.15071">
        <ele>988</ele>
        <time>2017-06-10T18:32:17Z</time>
      </trkpt>
      <trkpt lat="45.70875" lon="7.1507">
        <ele>989</ele>
        <time>2017-06-10T18:32:21Z</time>
      </trkpt>
      <trkpt lat="45.70874" lon="7.15068">
        <ele>989</ele>
        <time>2017-06-10T18:32:23Z</time>
      </trkpt>
      <trkpt lat="45.70874" lon="7.15065">
        <ele>988</ele>
        <time>2017-06-10T18:32:26Z</time>
      </trkpt>
      <trkpt lat="45.70875" lon="7.15058">
        <ele>986</ele>
        <time>2017-06-10T18:32:28Z</time>
      </trkpt>
      <trkpt lat="45.70876" lon="7.15053">
        <ele>985</ele>
        <time>2017-06-10T18:32:30Z</time>
      </trkpt>
      <trkpt lat="45.70874" lon="7.15046">
        <ele>983</ele>
        <time>2017-06-10T18:32:32Z</time>
      </trkpt>
      <trkpt lat="45.7087" lon="7.1504">
        <ele>983</ele>
        <time>2017-06-10T18:32:34Z</time>
      </trkpt>
      <trkpt lat="45.70863" lon="7.15034">
        <ele>983</ele>
        <time>2017-06-10T18:32:36Z</time>
      </trkpt>
      <trkpt lat="45.7086" lon="7.15032">
        <ele>983</ele>
        <time>2017-06-10T18:32:37Z</time>
      </trkpt>
      <trkpt lat="45.70853" lon="7.15025">
        <ele>982</ele>
        <time>2017-06-10T18:32:39Z</time>
      </trkpt>
      <trkpt lat="45.7085" lon="7.15021">
        <ele>981</ele>
        <time>2017-06-10T18:32:40Z</time>
      </trkpt>
      <trkpt lat="45.70847" lon="7.15016">
        <ele>980</ele>
        <time>2017-06-10T18:32:41Z</time>
      </trkpt>
      <trkpt lat="45.70844" lon="7.1501">
        <ele>979</ele>
        <time>2017-06-10T18:32:42Z</time>
      </trkpt>
      <trkpt lat="45.70838" lon="7.14999">
        <ele>970</ele>
        <time>2017-06-10T18:32:44Z</time>
      </trkpt>
      <trkpt lat="45.70832" lon="7.1499">
        <ele>969</ele>
        <time>2017-06-10T18:32:46Z</time>
      </trkpt>
      <trkpt lat="45.70833" lon="7.14987">
        <ele>968</ele>
        <time>2017-06-10T18:32:47Z</time>
      </trkpt>
      <trkpt lat="45.70835" lon="7.14988">
        <ele>962</ele>
        <time>2017-06-10T18:32:48Z</time>
      </trkpt>
      <trkpt lat="45.70837" lon="7.1499">
        <ele>962</ele>
        <time>2017-06-10T18:32:49Z</time>
      </trkpt>
      <trkpt lat="45.7084" lon="7.14991">
        <ele>963</ele>
        <time>2017-06-10T18:32:50Z</time>
      </trkpt>
      <trkpt lat="45.70842" lon="7.14993">
        <ele>962</ele>
        <time>2017-06-10T18:32:51Z</time>
      </trkpt>
      <trkpt lat="45.70845" lon="7.14994">
        <ele>961</ele>
        <time>2017-06-10T18:32:52Z</time>
      </trkpt>
      <trkpt lat="45.70847" lon="7.14994">
        <ele>959</ele>
        <time>2017-06-10T18:32:53Z</time>
      </trkpt>
      <trkpt lat="45.70852" lon="7.14994">
        <ele>956</ele>
        <time>2017-06-10T18:32:54Z</time>
      </trkpt>
      <trkpt lat="45.70862" lon="7.14991">
        <ele>950</ele>
        <time>2017-06-10T18:32:56Z</time>
      </trkpt>
      <trkpt lat="45.70869" lon="7.14992">
        <ele>947</ele>
        <time>2017-06-10T18:32:57Z</time>
      </trkpt>
      <trkpt lat="45.70876" lon="7.14991">
        <ele>945</ele>
        <time>2017-06-10T18:32:58Z</time>
      </trkpt>
      <trkpt lat="45.70883" lon="7.14989">
        <ele>943</ele>
        <time>2017-06-10T18:32:59Z</time>
      </trkpt>
      <trkpt lat="45.7089" lon="7.14986">
        <ele>941</ele>
        <time>2017-06-10T18:33:00Z</time>
      </trkpt>
      <trkpt lat="45.70896" lon="7.1498">
        <ele>940</ele>
        <time>2017-06-10T18:33:01Z</time>
      </trkpt>
      <trkpt lat="45.70902" lon="7.14975">
        <ele>938</ele>
        <time>2017-06-10T18:33:02Z</time>
      </trkpt>
      <trkpt lat="45.70905" lon="7.14969">
        <ele>937</ele>
        <time>2017-06-10T18:33:03Z</time>
      </trkpt>
      <trkpt lat="45.70908" lon="7.14964">
        <ele>935</ele>
        <time>2017-06-10T18:33:04Z</time>
      </trkpt>
      <trkpt lat="45.7091" lon="7.14958">
        <ele>933</ele>
        <time>2017-06-10T18:33:05Z</time>
      </trkpt>
      <trkpt lat="45.70915" lon="7.14948">
        <ele>929</ele>
        <time>2017-06-10T18:33:07Z</time>
      </trkpt>
      <trkpt lat="45.70922" lon="7.14937">
        <ele>915</ele>
        <time>2017-06-10T18:33:09Z</time>
      </trkpt>
      <trkpt lat="45.70927" lon="7.14934">
        <ele>915</ele>
        <time>2017-06-10T18:33:10Z</time>
      </trkpt>
      <trkpt lat="45.70933" lon="7.14933">
        <ele>915</ele>
        <time>2017-06-10T18:33:11Z</time>
      </trkpt>
      <trkpt lat="45.70941" lon="7.14935">
        <ele>916</ele>
        <time>2017-06-10T18:33:12Z</time>
      </trkpt>
      <trkpt lat="45.70948" lon="7.14934">
        <ele>916</ele>
        <time>2017-06-10T18:33:13Z</time>
      </trkpt>
      <trkpt lat="45.70955" lon="7.14934">
        <ele>916</ele>
        <time>2017-06-10T18:33:14Z</time>
      </trkpt>
      <trkpt lat="45.70963" lon="7.14933">
        <ele>915</ele>
        <time>2017-06-10T18:33:15Z</time>
      </trkpt>
      <trkpt lat="45.70969" lon="7.14931">
        <ele>914</ele>
        <time>2017-06-10T18:33:16Z</time>
      </trkpt>
      <trkpt lat="45.70975" lon="7.1493">
        <ele>913</ele>
        <time>2017-06-10T18:33:17Z</time>
      </trkpt>
      <trkpt lat="45.70979" lon="7.14927">
        <ele>912</ele>
        <time>2017-06-10T18:33:19Z</time>
      </trkpt>
      <trkpt lat="45.70979" lon="7.14926">
        <ele>912</ele>
        <time>2017-06-10T18:33:20Z</time>
      </trkpt>
      <trkpt lat="45.7098" lon="7.14925">
        <ele>912</ele>
        <time>2017-06-10T18:33:21Z</time>
      </trkpt>
      <trkpt lat="45.70981" lon="7.14923">
        <ele>911</ele>
        <time>2017-06-10T18:33:23Z</time>
      </trkpt>
      <trkpt lat="45.70984" lon="7.1492">
        <ele>910</ele>
        <time>2017-06-10T18:33:25Z</time>
      </trkpt>
      <trkpt lat="45.70993" lon="7.14918">
        <ele>906</ele>
        <time>2017-06-10T18:33:27Z</time>
      </trkpt>
      <trkpt lat="45.70997" lon="7.14919">
        <ele>904</ele>
        <time>2017-06-10T18:33:29Z</time>
      </trkpt>
      <trkpt lat="45.70999" lon="7.1492">
        <ele>904</ele>
        <time>2017-06-10T18:33:31Z</time>
      </trkpt>
      <trkpt lat="45.71003" lon="7.14921">
        <ele>905</ele>
        <time>2017-06-10T18:33:34Z</time>
      </trkpt>
      <trkpt lat="45.71008" lon="7.14922">
        <ele>906</ele>
        <time>2017-06-10T18:33:42Z</time>
      </trkpt>
      <trkpt lat="45.71011" lon="7.14912">
        <ele>900</ele>
        <time>2017-06-10T18:33:54Z</time>
      </trkpt>
      <trkpt lat="45.71011" lon="7.1491">
        <ele>900</ele>
        <time>2017-06-10T18:34:04Z</time>
      </trkpt>
      <trkpt lat="45.71007" lon="7.14903">
        <ele>899</ele>
        <time>2017-06-10T18:34:07Z</time>
      </trkpt>
      <trkpt lat="45.71007" lon="7.149">
        <ele>899</ele>
        <time>2017-06-10T18:34:08Z</time>
      </trkpt>
      <trkpt lat="45.71007" lon="7.14898">
        <ele>899</ele>
        <time>2017-06-10T18:34:10Z</time>
      </trkpt>
      <trkpt lat="45.71008" lon="7.14897">
        <ele>898</ele>
        <time>2017-06-10T18:34:13Z</time>
      </trkpt>
      <trkpt lat="45.71009" lon="7.14892">
        <ele>898</ele>
        <time>2017-06-10T18:34:15Z</time>
      </trkpt>
      <trkpt lat="45.71009" lon="7.14888">
        <ele>897</ele>
        <time>2017-06-10T18:34:16Z</time>
      </trkpt>
      <trkpt lat="45.71009" lon="7.14886">
        <ele>897</ele>
        <time>2017-06-10T18:34:18Z</time>
      </trkpt>
      <trkpt lat="45.71008" lon="7.14883">
        <ele>896</ele>
        <time>2017-06-10T18:34:20Z</time>
      </trkpt>
      <trkpt lat="45.7101" lon="7.14879">
        <ele>896</ele>
        <time>2017-06-10T18:34:22Z</time>
      </trkpt>
      <trkpt lat="45.7101" lon="7.1487">
        <ele>894</ele>
        <time>2017-06-10T18:34:24Z</time>
      </trkpt>
      <trkpt lat="45.7101" lon="7.14865">
        <ele>893</ele>
        <time>2017-06-10T18:34:25Z</time>
      </trkpt>
      <trkpt lat="45.7101" lon="7.14861">
        <ele>892</ele>
        <time>2017-06-10T18:34:26Z</time>
      </trkpt>
      <trkpt lat="45.71012" lon="7.14856">
        <ele>891</ele>
        <time>2017-06-10T18:34:27Z</time>
      </trkpt>
      <trkpt lat="45.71016" lon="7.14849">
        <ele>890</ele>
        <time>2017-06-10T18:34:29Z</time>
      </trkpt>
      <trkpt lat="45.71021" lon="7.14835">
        <ele>889</ele>
        <time>2017-06-10T18:34:32Z</time>
      </trkpt>
      <trkpt lat="45.71023" lon="7.14832">
        <ele>881</ele>
        <time>2017-06-10T18:34:33Z</time>
      </trkpt>
      <trkpt lat="45.71025" lon="7.14827">
        <ele>881</ele>
        <time>2017-06-10T18:34:41Z</time>
      </trkpt>
      <trkpt lat="45.71025" lon="7.14825">
        <ele>881</ele>
        <time>2017-06-10T18:35:53Z</time>
      </trkpt>
      <trkpt lat="45.71021" lon="7.14805">
        <ele>879</ele>
        <time>2017-06-10T18:36:02Z</time>
      </trkpt>
      <trkpt lat="45.7101" lon="7.14746">
        <ele>861</ele>
        <time>2017-06-10T18:36:14Z</time>
      </trkpt>
      <trkpt lat="45.71001" lon="7.14729">
        <ele>862</ele>
        <time>2017-06-10T18:36:16Z</time>
      </trkpt>
      <trkpt lat="45.70994" lon="7.14712">
        <ele>850</ele>
        <time>2017-06-10T18:36:18Z</time>
      </trkpt>
      <trkpt lat="45.7099" lon="7.14702">
        <ele>849</ele>
        <time>2017-06-10T18:36:19Z</time>
      </trkpt>
      <trkpt lat="45.70985" lon="7.14692">
        <ele>849</ele>
        <time>2017-06-10T18:36:20Z</time>
      </trkpt>
      <trkpt lat="45.7098" lon="7.14683">
        <ele>849</ele>
        <time>2017-06-10T18:36:21Z</time>
      </trkpt>
      <trkpt lat="45.70971" lon="7.14666">
        <ele>843</ele>
        <time>2017-06-10T18:36:23Z</time>
      </trkpt>
      <trkpt lat="45.70966" lon="7.14658">
        <ele>842</ele>
        <time>2017-06-10T18:36:24Z</time>
      </trkpt>
      <trkpt lat="45.70962" lon="7.14649">
        <ele>841</ele>
        <time>2017-06-10T18:36:25Z</time>
      </trkpt>
      <trkpt lat="45.70959" lon="7.1464">
        <ele>841</ele>
        <time>2017-06-10T18:36:26Z</time>
      </trkpt>
      <trkpt lat="45.70959" lon="7.14631">
        <ele>841</ele>
        <time>2017-06-10T18:36:27Z</time>
      </trkpt>
      <trkpt lat="45.7096" lon="7.14623">
        <ele>841</ele>
        <time>2017-06-10T18:36:28Z</time>
      </trkpt>
      <trkpt lat="45.70967" lon="7.14605">
        <ele>841</ele>
        <time>2017-06-10T18:36:30Z</time>
      </trkpt>
      <trkpt lat="45.70969" lon="7.14594">
        <ele>842</ele>
        <time>2017-06-10T18:36:31Z</time>
      </trkpt>
      <trkpt lat="45.7097" lon="7.14582">
        <ele>838</ele>
        <time>2017-06-10T18:36:32Z</time>
      </trkpt>
      <trkpt lat="45.70973" lon="7.1456">
        <ele>837</ele>
        <time>2017-06-10T18:36:34Z</time>
      </trkpt>
      <trkpt lat="45.70981" lon="7.14537">
        <ele>836</ele>
        <time>2017-06-10T18:36:36Z</time>
      </trkpt>
      <trkpt lat="45.70985" lon="7.14526">
        <ele>835</ele>
        <time>2017-06-10T18:36:37Z</time>
      </trkpt>
      <trkpt lat="45.7099" lon="7.14514">
        <ele>835</ele>
        <time>2017-06-10T18:36:38Z</time>
      </trkpt>
      <trkpt lat="45.70994" lon="7.14503">
        <ele>836</ele>
        <time>2017-06-10T18:36:39Z</time>
      </trkpt>
      <trkpt lat="45.70998" lon="7.14492">
        <ele>832</ele>
        <time>2017-06-10T18:36:40Z</time>
      </trkpt>
      <trkpt lat="45.71001" lon="7.14482">
        <ele>839</ele>
        <time>2017-06-10T18:36:41Z</time>
      </trkpt>
      <trkpt lat="45.71003" lon="7.14473">
        <ele>839</ele>
        <time>2017-06-10T18:36:42Z</time>
      </trkpt>
      <trkpt lat="45.71004" lon="7.14462">
        <ele>839</ele>
        <time>2017-06-10T18:36:43Z</time>
      </trkpt>
      <trkpt lat="45.71003" lon="7.14452">
        <ele>837</ele>
        <time>2017-06-10T18:36:44Z</time>
      </trkpt>
      <trkpt lat="45.71002" lon="7.1444">
        <ele>835</ele>
        <time>2017-06-10T18:36:45Z</time>
      </trkpt>
      <trkpt lat="45.70997" lon="7.14417">
        <ele>822</ele>
        <time>2017-06-10T18:36:47Z</time>
      </trkpt>
      <trkpt lat="45.7099" lon="7.14392">
        <ele>814</ele>
        <time>2017-06-10T18:36:49Z</time>
      </trkpt>
      <trkpt lat="45.70988" lon="7.14378">
        <ele>813</ele>
        <time>2017-06-10T18:36:50Z</time>
      </trkpt>
      <trkpt lat="45.70989" lon="7.14364">
        <ele>812</ele>
        <time>2017-06-10T18:36:51Z</time>
      </trkpt>
      <trkpt lat="45.70992" lon="7.14348">
        <ele>813</ele>
        <time>2017-06-10T18:36:52Z</time>
      </trkpt>
      <trkpt lat="45.70995" lon="7.14333">
        <ele>814</ele>
        <time>2017-06-10T18:36:53Z</time>
      </trkpt>
      <trkpt lat="45.70997" lon="7.14318">
        <ele>811</ele>
        <time>2017-06-10T18:36:54Z</time>
      </trkpt>
      <trkpt lat="45.70996" lon="7.14305">
        <ele>809</ele>
        <time>2017-06-10T18:36:55Z</time>
      </trkpt>
      <trkpt lat="45.70992" lon="7.14294">
        <ele>808</ele>
        <time>2017-06-10T18:36:56Z</time>
      </trkpt>
      <trkpt lat="45.70973" lon="7.1428">
        <ele>806</ele>
        <time>2017-06-10T18:36:58Z</time>
      </trkpt>
      <trkpt lat="45.70956" lon="7.14271">
        <ele>803</ele>
        <time>2017-06-10T18:37:00Z</time>
      </trkpt>
      <trkpt lat="45.70944" lon="7.14255">
        <ele>800</ele>
        <time>2017-06-10T18:37:02Z</time>
      </trkpt>
      <trkpt lat="45.70941" lon="7.14244">
        <ele>801</ele>
        <time>2017-06-10T18:37:03Z</time>
      </trkpt>
      <trkpt lat="45.70942" lon="7.14233">
        <ele>801</ele>
        <time>2017-06-10T18:37:04Z</time>
      </trkpt>
      <trkpt lat="45.7095" lon="7.14212">
        <ele>804</ele>
        <time>2017-06-10T18:37:06Z</time>
      </trkpt>
      <trkpt lat="45.70958" lon="7.14196">
        <ele>806</ele>
        <time>2017-06-10T18:37:08Z</time>
      </trkpt>
      <trkpt lat="45.70966" lon="7.14178">
        <ele>809</ele>
        <time>2017-06-10T18:37:11Z</time>
      </trkpt>
      <trkpt lat="45.70971" lon="7.14176">
        <ele>810</ele>
        <time>2017-06-10T18:37:18Z</time>
      </trkpt>
      <trkpt lat="45.70972" lon="7.14175">
        <ele>811</ele>
        <time>2017-06-10T18:38:13Z</time>
      </trkpt>
    </trkseg>
  </trk>
</gpx>